DW7680 Weather Reports


Display with metric or nautical units.
time (UTC)temp
F
wind
direction
speed
MPH
gust
MPH
rain 1hr
in
rain 24hr
in
rain mn
in
humidity
%
barometer
mb
20240228234512 37 359 0.0 3.0 0.00 0.00 0.00 51 1021.3
20240228233014 38 359 0.0 0.0 0.00 0.00 0.00 51 1021.3
20240228231509 39 359 0.0 2.0 0.00 0.00 0.00 49 1021.4
20240228230009 38 107 0.0 2.0 0.00 0.00 0.00 50 1021.4
20240228224508 38 81 0.0 2.0 0.00 0.00 0.00 51 1021.5
20240228223013 36 359 0.0 0.0 0.00 0.00 0.00 52 1021.5
20240228221511 36 359 0.0 2.0 0.00 0.00 0.00 52 1021.6
20240228220007 36 359 0.0 1.0 0.00 0.00 0.00 51 1021.7
20240228214508 37 111 0.0 3.0 0.00 0.00 0.00 51 1021.6
20240228213005 37 359 0.0 3.0 0.00 0.00 0.00 50 1021.5
20240228211504 37 86 0.0 4.0 0.00 0.00 0.00 50 1021.6
20240228210014 37 359 0.0 2.0 0.00 0.00 0.00 51 1021.0
20240228204503 37 97 0.0 2.0 0.00 0.00 0.00 51 1021.5
20240228203015 37 359 0.0 4.0 0.00 0.00 0.00 51 1021.5
20240228201503 36 93 0.0 1.0 0.00 0.00 0.00 52 1021.3
20240228200002 35 89 0.0 2.0 0.00 0.00 0.00 54 1021.7
20240228194503 35 359 0.0 1.0 0.00 0.00 0.00 55 1021.7
20240228193003 35 359 0.0 0.0 0.00 0.00 0.00 54 1021.5
20240228191600 35 359 0.0 0.0 0.00 0.00 0.00 55 1021.5
20240228190100 35 359 0.0 1.0 0.00 0.00 0.00 55 1021.8
20240228184602 35 83 0.0 3.0 0.00 0.00 0.00 55 1021.5
20240228183101 35 359 0.0 4.0 0.00 0.00 0.00 55 1021.8
20240228181558 35 111 0.0 11.0 0.00 0.00 0.00 55 1021.7
20240228180101 35 77 0.0 0.0 0.00 0.00 0.00 57 1021.3
20240228174601 34 110 0.0 0.0 0.00 0.00 0.00 58 1021.3
20240228173109 34 359 0.0 4.0 0.00 0.00 0.00 59 1021.3
20240228171608 33 359 0.0 1.0 0.00 0.00 0.00 61 1021.5
20240228170056 32 108 0.0 1.0 0.00 0.00 0.00 63 1021.5
20240228164553 33 108 0.0 1.0 0.00 0.00 0.00 62 1020.8
20240228163106 33 359 0.0 2.0 0.00 0.00 0.00 62 1020.7
20240228161551 32 359 0.0 2.0 0.00 0.00 0.00 63 1020.5
20240228160050 33 359 0.0 2.0 0.00 0.00 0.00 63 1020.4
20240228154556 32 359 0.0 0.0 0.00 0.00 0.00 65 1020.3
20240228153049 31 100 0.0 0.0 0.00 0.00 0.00 67 1019.9
20240228151546 30 100 0.0 0.0 0.00 0.00 0.00 68 1019.7
20240228150048 29 359 0.0 0.0 0.00 0.00 0.00 69 1019.3
20240228144556 29 359 0.0 0.0 0.00 0.00 0.00 70 1018.9
20240228143038 29 359 0.0 0.0 0.00 0.00 0.00 70 1018.5
20240228141535 29 359 0.0 0.0 0.00 0.00 0.00 69 1018.3
20240228140032 29 100 0.0 0.0 0.00 0.00 0.00 69 1018.1
20240228134538 30 101 0.0 0.0 0.00 0.00 0.00 67 1017.8
20240228133025 31 359 0.0 0.0 0.00 0.00 0.00 66 1017.3
20240228131522 32 100 0.0 0.0 0.00 0.00 0.00 64 1017.0
20240228130017 34 359 0.0 0.0 0.00 0.00 0.00 61 1016.5
20240228124513 35 359 0.0 0.0 0.00 0.00 0.00 59 1016.1
20240228123011 36 359 0.0 3.0 0.00 0.00 0.00 58 1015.6
20240228121504 39 359 0.0 3.0 0.00 0.00 0.00 54 1014.9
20240228120002 40 95 0.0 3.0 0.00 0.00 0.00 53 1014.6
20240228114624 41 359 0.0 2.0 0.00 0.00 0.00 51 1014.1
20240228113058 41 112 0.0 0.0 0.00 0.00 0.00 51 1013.5
20240228111556 40 83 1.0 4.0 0.00 0.00 0.00 53 1013.9
20240228110054 41 359 0.0 1.0 0.00 0.00 0.00 53 1012.3
20240228104556 41 359 0.0 2.0 0.00 0.00 0.00 53 1012.5
20240228103053 40 171 0.0 0.0 0.00 0.00 0.00 54 1012.4
20240228101549 39 168 0.0 1.0 0.00 0.00 0.00 56 1012.3
20240228100054 41 168 0.0 0.0 0.00 0.00 0.00 53 1012.4
20240228094543 41 165 0.0 0.0 0.00 0.00 0.00 53 1012.6
20240228093049 42 164 0.0 0.0 0.00 0.00 0.00 52 1012.6
20240228091537 43 359 0.0 1.0 0.00 0.00 0.00 50 1012.3
20240228090036 43 359 0.0 1.0 0.00 0.00 0.00 51 1011.7
20240228084533 43 359 0.0 3.0 0.00 0.00 0.00 51 1011.7
20240228083031 43 359 0.0 4.0 0.00 0.00 0.00 51 1011.2
20240228081529 43 359 0.0 6.0 0.00 0.00 0.00 52 1011.4
20240228080030 43 359 0.0 3.0 0.00 0.00 0.00 52 1011.2
20240228074525 43 359 0.0 3.0 0.00 0.00 0.00 52 1011.0
20240228073033 43 359 0.0 3.0 0.00 0.00 0.00 51 1011.1
20240228071537 44 359 0.0 4.0 0.00 0.00 0.00 51 1010.5
20240228070016 44 359 0.0 4.0 0.00 0.00 0.00 50 1010.6
20240228064514 45 359 0.0 8.0 0.00 0.00 0.00 50 1010.3
20240228063011 46 359 2.0 4.0 0.00 0.00 0.00 50 1010.0
20240228061509 46 359 0.0 9.0 0.00 0.00 0.00 51 1010.2
20240228060006 46 359 1.0 6.0 0.00 0.00 0.00 50 1009.8
20240228054505 47 359 3.0 11.0 0.00 0.00 0.00 50 1009.7
20240228053002 47 359 2.0 14.0 0.00 0.00 0.00 49 1009.4
20240228051600 47 359 0.0 10.0 0.00 0.00 0.00 48 1009.3
20240228050058 47 359 2.0 6.0 0.00 0.00 0.00 48 1008.9
20240228044559 47 359 3.0 12.0 0.00 0.00 0.00 48 1008.9
20240228043055 47 359 1.0 8.0 0.00 0.00 0.00 48 1009.0
20240228041609 47 359 1.0 5.0 0.00 0.00 0.00 48 1009.0
20240228040021 47 359 0.0 4.0 0.00 0.00 0.00 48 1008.7
20240228034519 48 359 0.0 5.0 0.00 0.00 0.00 47 1008.5
20240228033020 48 359 1.0 8.0 0.00 0.00 0.00 47 1008.5
20240228031524 48 359 2.0 8.0 0.00 0.00 0.00 46 1008.3
20240228030033 49 359 1.0 14.0 0.00 0.00 0.00 46 1007.3
20240228024512 49 359 1.0 8.0 0.00 0.00 0.00 46 1007.3
20240228023010 49 359 4.0 16.0 0.00 0.00 0.00 45 1006.9
20240228021508 49 359 4.0 12.0 0.00 0.00 0.00 44 1007.0
20240228020007 50 359 2.0 13.0 0.00 0.00 0.00 45 1007.0
20240228014506 50 359 2.0 8.0 0.00 0.00 0.00 45 1006.6
20240228013007 50 359 2.0 10.0 0.00 0.00 0.00 46 1006.3
20240228011507 50 359 4.0 14.0 0.00 0.00 0.00 46 1005.9
20240228010011 51 359 3.0 11.0 0.00 0.00 0.00 46 1005.7
20240228004505 51 190 1.0 13.0 0.00 0.00 0.00 46 1005.5
20240228003004 51 359 4.0 17.0 0.00 0.00 0.00 47 1005.1
20240228001508 52 359 1.0 14.0 0.00 0.00 0.00 46 1005.0
20240228000003 52 359 1.0 15.0 0.00 0.00 0.00 47 1004.5